Time,TemperatureF,DewpointF,PressureIn,WindDirection,WindDirectionDegrees,WindSpeedMPH,WindSpeedGustMPH,Humidity,HourlyPrecipIn,Conditions,Clouds,dailyrainin,SolarRadiationWatts/m^2,SoftwareType,DateUTC
2013-03-13 00:03:00,41.0,26.0,-100.00,WNW,289,4.0,9.0,55,0.00,,,0.04,0.000000,,2013-03-13 04:03:00,
2013-03-13 00:32:00,42.0,29.0,-100.00,West,277,4.0,9.0,59,0.00,,,0.01,0.000000,,2013-03-13 04:32:00,
2013-03-13 00:43:00,42.0,29.0,-100.00,West,277,4.0,9.0,59,0.00,,,0.01,0.000000,,2013-03-13 04:43:00,
2013-03-13 00:53:00,42.0,29.0,-100.00,West,277,4.0,9.0,59,0.00,,,0.01,0.000000,,2013-03-13 04:53:00,
2013-03-13 01:02:00,42.0,29.0,-100.00,West,277,4.0,9.0,59,0.00,,,0.01,0.000000,,2013-03-13 05:02:00,
2013-03-13 01:33:00,42.0,27.0,-100.00,WSW,238,4.0,11.0,55,0.00,,,0.00,0.000000,,2013-03-13 05:33:00,
2013-03-13 01:42:00,42.0,27.0,-100.00,WSW,238,4.0,11.0,55,0.00,,,0.00,0.000000,,2013-03-13 05:42:00,
2013-03-13 01:53:00,42.0,27.0,-100.00,WSW,238,4.0,11.0,55,0.00,,,0.00,0.000000,,2013-03-13 05:53:00,
2013-03-13 02:02:00,42.0,27.0,-100.00,WSW,238,4.0,11.0,55,0.00,,,0.00,0.000000,,2013-03-13 06:02:00,
2013-03-13 02:33:00,42.0,27.0,-100.00,SSW,198,5.0,14.0,55,0.00,,,0.00,0.000000,,2013-03-13 06:33:00,
2013-03-13 02:43:00,42.0,27.0,-100.00,SSW,198,5.0,14.0,55,0.00,,,0.00,0.000000,,2013-03-13 06:43:00,
2013-03-13 02:53:00,42.0,27.0,-100.00,SSW,198,5.0,14.0,55,0.00,,,0.00,0.000000,,2013-03-13 06:53:00,
2013-03-13 03:03:00,42.0,27.0,-100.00,SSW,198,5.0,14.0,55,0.00,,,0.00,0.000000,,2013-03-13 07:03:00,
2013-03-13 03:33:00,41.0,26.0,-100.00,NNW,337,5.0,12.0,55,0.00,,,0.00,0.000000,,2013-03-13 07:33:00,
2013-03-13 03:43:00,41.0,26.0,-100.00,NNW,337,5.0,12.0,55,0.00,,,0.00,0.000000,,2013-03-13 07:43:00,
2013-03-13 03:53:00,41.0,26.0,-100.00,NNW,337,5.0,12.0,55,0.00,,,0.00,0.000000,,2013-03-13 07:53:00,
2013-03-13 04:03:00,41.0,26.0,-100.00,NNW,337,5.0,12.0,55,0.00,,,0.00,0.000000,,2013-03-13 08:03:00,
2013-03-13 04:33:00,40.0,25.0,-100.00,WNW,290,3.0,9.0,54,0.00,,,0.00,0.000000,,2013-03-13 08:33:00,
2013-03-13 04:43:00,40.0,25.0,-100.00,WNW,290,3.0,9.0,54,0.00,,,0.00,0.000000,,2013-03-13 08:43:00,
2013-03-13 04:54:00,40.0,25.0,-100.00,WNW,290,3.0,9.0,54,0.00,,,0.00,0.000000,,2013-03-13 08:54:00,
2013-03-13 05:02:00,40.0,25.0,-100.00,WNW,290,3.0,9.0,54,0.00,,,0.00,0.000000,,2013-03-13 09:02:00,
2013-03-13 05:32:00,36.0,21.0,-100.00,NW,314,2.0,9.0,54,0.00,,,0.00,0.000000,,2013-03-13 09:32:00,
2013-03-13 05:42:00,36.0,21.0,-100.00,NW,314,2.0,9.0,54,0.00,,,0.00,0.000000,,2013-03-13 09:42:00,
2013-03-13 05:52:00,36.0,21.0,-100.00,NW,314,2.0,9.0,54,0.00,,,0.00,0.000000,,2013-03-13 09:52:00,
2013-03-13 06:02:00,36.0,21.0,-100.00,NW,314,2.0,9.0,54,0.00,,,0.00,0.000000,,2013-03-13 10:02:00,
2013-03-13 06:32:00,36.0,23.0,-100.00,West,277,3.0,10.0,60,0.00,,,0.00,0.000000,,2013-03-13 10:32:00,
2013-03-13 06:42:00,36.0,23.0,-100.00,West,277,3.0,10.0,60,0.00,,,0.00,0.000000,,2013-03-13 10:42:00,
2013-03-13 06:52:00,36.0,23.0,-100.00,West,277,3.0,10.0,60,0.00,,,0.00,0.000000,,2013-03-13 10:52:00,
2013-03-13 07:02:00,36.0,23.0,-100.00,West,277,3.0,10.0,60,0.00,,,0.00,0.000000,,2013-03-13 11:02:00,
2013-03-13 07:32:00,38.0,24.0,-100.00,WSW,257,4.0,9.0,57,0.00,,,0.00,0.000000,,2013-03-13 11:32:00,
2013-03-13 07:42:00,38.0,24.0,-100.00,WSW,257,4.0,9.0,57,0.00,,,0.00,0.000000,,2013-03-13 11:42:00,
2013-03-13 07:53:00,38.0,24.0,-100.00,WSW,257,4.0,9.0,57,0.00,,,0.00,0.000000,,2013-03-13 11:53:00,
2013-03-13 08:02:00,38.0,24.0,-100.00,WSW,257,4.0,9.0,57,0.00,,,0.00,0.000000,,2013-03-13 12:02:00,
2013-03-13 08:32:00,37.0,24.0,-100.00,SW,230,4.0,11.0,60,0.00,,,0.00,2.000000,,2013-03-13 12:32:00,
2013-03-13 08:42:00,37.0,24.0,-100.00,SW,230,4.0,11.0,60,0.00,,,0.00,2.000000,,2013-03-13 12:42:00,
2013-03-13 08:53:00,37.0,24.0,-100.00,SW,230,4.0,11.0,60,0.00,,,0.00,2.000000,,2013-03-13 12:53:00,
2013-03-13 09:02:00,37.0,24.0,-100.00,SW,230,4.0,11.0,60,0.00,,,0.00,2.000000,,2013-03-13 13:02:00,
2013-03-13 09:33:00,38.0,27.0,-100.00,NNW,348,4.0,11.0,64,0.00,,,0.00,112.000000,,2013-03-13 13:33:00,
2013-03-13 09:43:00,38.0,27.0,-100.00,NNW,348,4.0,11.0,64,0.00,,,0.00,112.000000,,2013-03-13 13:43:00,
2013-03-13 09:53:00,38.0,27.0,-100.00,NNW,348,4.0,11.0,64,0.00,,,0.00,112.000000,,2013-03-13 13:53:00,
2013-03-13 10:03:00,38.0,27.0,-100.00,NNW,348,4.0,11.0,64,0.00,,,0.00,112.000000,,2013-03-13 14:03:00,
2013-03-13 10:34:00,38.0,28.0,-100.00,NW,323,6.0,16.0,66,0.00,,,0.00,373.000000,,2013-03-13 14:34:00,
2013-03-13 10:42:00,38.0,28.0,-100.00,NW,323,6.0,16.0,66,0.00,,,0.00,373.000000,,2013-03-13 14:42:00,
2013-03-13 10:53:00,38.0,28.0,-100.00,NW,323,6.0,16.0,66,0.00,,,0.00,373.000000,,2013-03-13 14:53:00,
2013-03-13 11:03:00,38.0,28.0,-100.00,NW,323,6.0,16.0,66,0.00,,,0.00,373.000000,,2013-03-13 15:03:00,
2013-03-13 11:33:00,40.0,29.0,-100.00,West,279,7.0,16.0,64,0.00,,,0.00,578.000000,,2013-03-13 15:33:00,
2013-03-13 11:43:00,40.0,29.0,-100.00,West,279,7.0,16.0,64,0.00,,,0.00,578.000000,,2013-03-13 15:43:00,
2013-03-13 11:53:00,40.0,29.0,-100.00,West,279,7.0,16.0,64,0.00,,,0.00,578.000000,,2013-03-13 15:53:00,
2013-03-13 12:03:00,40.0,29.0,-100.00,West,279,7.0,16.0,64,0.00,,,0.00,578.000000,,2013-03-13 16:03:00,
2013-03-13 12:33:00,39.0,20.0,-100.00,NW,312,7.0,23.0,47,0.00,,,0.00,660.000000,,2013-03-13 16:33:00,
2013-03-13 12:42:00,39.0,20.0,-100.00,NW,312,7.0,23.0,47,0.00,,,0.00,660.000000,,2013-03-13 16:42:00,
2013-03-13 12:52:00,39.0,20.0,-100.00,NW,312,7.0,23.0,47,0.00,,,0.00,660.000000,,2013-03-13 16:52:00,
2013-03-13 13:03:00,39.0,20.0,-100.00,NW,312,7.0,23.0,47,0.00,,,0.00,660.000000,,2013-03-13 17:03:00,
2013-03-13 13:33:00,42.0,21.0,-100.00,West,279,11.0,19.0,43,0.00,,,0.00,821.000000,,2013-03-13 17:33:00,
2013-03-13 13:42:00,42.0,21.0,-100.00,West,279,11.0,19.0,43,0.00,,,0.00,821.000000,,2013-03-13 17:42:00,
2013-03-13 13:53:00,42.0,21.0,-100.00,West,279,11.0,19.0,43,0.00,,,0.00,821.000000,,2013-03-13 17:53:00,
2013-03-13 14:02:00,42.0,21.0,-100.00,West,279,11.0,19.0,43,0.00,,,0.00,821.000000,,2013-03-13 18:02:00,
2013-03-13 14:33:00,43.0,22.0,-100.00,NW,306,9.0,22.0,42,0.00,,,0.00,943.000000,,2013-03-13 18:33:00,
2013-03-13 14:43:00,43.0,22.0,-100.00,NW,306,9.0,22.0,42,0.00,,,0.00,943.000000,,2013-03-13 18:43:00,
2013-03-13 14:52:00,43.0,22.0,-100.00,NW,306,9.0,22.0,42,0.00,,,0.00,943.000000,,2013-03-13 18:52:00,
2013-03-13 15:03:00,43.0,22.0,-100.00,NW,306,9.0,22.0,42,0.00,,,0.00,943.000000,,2013-03-13 19:03:00,
2013-03-13 15:32:00,44.0,21.0,-100.00,WNW,295,9.0,21.0,40,0.00,,,0.00,898.000000,,2013-03-13 19:32:00,
2013-03-13 15:43:00,44.0,21.0,-100.00,WNW,295,9.0,21.0,40,0.00,,,0.00,898.000000,,2013-03-13 19:43:00,
2013-03-13 15:53:00,44.0,21.0,-100.00,WNW,295,9.0,21.0,40,0.00,,,0.00,898.000000,,2013-03-13 19:53:00,
2013-03-13 16:02:00,44.0,21.0,-100.00,WNW,295,9.0,21.0,40,0.00,,,0.00,898.000000,,2013-03-13 20:02:00,
2013-03-13 16:33:00,40.0,19.0,-100.00,NW,312,8.0,19.0,42,0.00,,,0.00,570.000000,,2013-03-13 20:33:00,
2013-03-13 16:42:00,40.0,19.0,-100.00,NW,312,8.0,19.0,42,0.00,,,0.00,570.000000,,2013-03-13 20:42:00,
2013-03-13 16:52:00,40.0,19.0,-100.00,NW,312,8.0,19.0,42,0.00,,,0.00,570.000000,,2013-03-13 20:52:00,
2013-03-13 17:02:00,40.0,19.0,-100.00,NW,312,8.0,19.0,42,0.00,,,0.00,570.000000,,2013-03-13 21:02:00,
2013-03-13 17:34:00,42.0,19.0,-100.00,North,8,7.0,19.0,40,0.00,,,0.00,409.000000,,2013-03-13 21:34:00,
2013-03-13 17:42:00,42.0,19.0,-100.00,North,8,7.0,19.0,40,0.00,,,0.00,409.000000,,2013-03-13 21:42:00,
2013-03-13 17:52:00,42.0,19.0,-100.00,North,8,7.0,19.0,40,0.00,,,0.00,409.000000,,2013-03-13 21:52:00,
2013-03-13 18:02:00,42.0,19.0,-100.00,North,8,7.0,19.0,40,0.00,,,0.00,409.000000,,2013-03-13 22:02:00,
2013-03-13 18:33:00,40.0,16.0,-100.00,NNE,17,8.0,17.0,38,0.00,,,0.00,322.000000,,2013-03-13 22:33:00,
2013-03-13 18:42:00,40.0,16.0,-100.00,NNE,17,8.0,17.0,38,0.00,,,0.00,322.000000,,2013-03-13 22:42:00,
2013-03-13 18:52:00,40.0,16.0,-100.00,NNE,17,8.0,17.0,38,0.00,,,0.00,322.000000,,2013-03-13 22:52:00,
2013-03-13 19:02:00,40.0,16.0,-100.00,NNE,17,8.0,17.0,38,0.00,,,0.00,322.000000,,2013-03-13 23:02:00,
2013-03-13 19:32:00,39.0,18.0,-100.00,NW,321,8.0,20.0,43,0.00,,,0.00,103.000000,,2013-03-13 23:32:00,
2013-03-13 19:43:00,39.0,18.0,-100.00,NW,321,8.0,20.0,43,0.00,,,0.00,103.000000,,2013-03-13 23:43:00,
2013-03-13 19:52:00,39.0,18.0,-100.00,NW,321,8.0,20.0,43,0.00,,,0.00,103.000000,,2013-03-13 23:52:00,
2013-03-13 20:02:00,39.0,18.0,-100.00,NW,321,8.0,20.0,43,0.00,,,0.00,103.000000,,2013-03-14 00:02:00,
2013-03-13 20:33:00,35.0,18.0,-100.00,South,177,7.0,17.0,49,0.00,,,0.00,22.000000,,2013-03-14 00:33:00,
2013-03-13 20:42:00,35.0,18.0,-100.00,South,177,7.0,17.0,49,0.00,,,0.00,22.000000,,2013-03-14 00:42:00,
2013-03-13 20:52:00,35.0,18.0,-100.00,South,177,7.0,17.0,49,0.00,,,0.00,22.000000,,2013-03-14 00:52:00,
2013-03-13 21:03:00,35.0,18.0,-100.00,South,177,7.0,17.0,49,0.00,,,0.00,22.000000,,2013-03-14 01:03:00,
2013-03-13 21:33:00,33.0,17.0,-100.00,North,354,6.0,15.0,52,0.00,,,0.00,0.000000,,2013-03-14 01:33:00,
2013-03-13 21:42:00,33.0,17.0,-100.00,North,354,6.0,15.0,52,0.00,,,0.00,0.000000,,2013-03-14 01:42:00,
2013-03-13 21:53:00,33.0,17.0,-100.00,North,354,6.0,15.0,52,0.00,,,0.00,0.000000,,2013-03-14 01:53:00,
2013-03-13 22:02:00,33.0,17.0,-100.00,North,354,6.0,15.0,52,0.00,,,0.00,0.000000,,2013-03-14 02:02:00,
2013-03-13 22:33:00,31.0,16.0,-100.00,NNW,344,7.0,15.0,54,0.00,,,0.00,0.000000,,2013-03-14 02:33:00,
2013-03-13 22:42:00,31.0,16.0,-100.00,NNW,344,7.0,15.0,54,0.00,,,0.00,0.000000,,2013-03-14 02:42:00,
2013-03-13 22:52:00,31.0,16.0,-100.00,NNW,344,7.0,15.0,54,0.00,,,0.00,0.000000,,2013-03-14 02:52:00,
2013-03-13 23:02:00,31.0,16.0,-100.00,NNW,344,7.0,15.0,54,0.00,,,0.00,0.000000,,2013-03-14 03:02:00,
2013-03-13 23:33:00,29.0,16.0,-100.00,SE,128,5.0,16.0,57,0.00,,,0.00,0.000000,,2013-03-14 03:33:00,
2013-03-13 23:42:00,29.0,16.0,-100.00,SE,128,5.0,16.0,57,0.00,,,0.00,0.000000,,2013-03-14 03:42:00,
2013-03-13 23:53:00,29.0,16.0,-100.00,SE,128,5.0,16.0,57,0.00,,,0.00,0.000000,,2013-03-14 03:53:00,